Time;durP1;ratioP1;P1;durP2;ratioP2;P2;SDS_P1;SDS_P2;PMS_P1;PMS_P2;Temp;Humidity;BMP_temperature;BMP_pressure;BME280_temperature;BME280_humidity;BME280_pressure;Samples;Min_cycle;Max_cycle;Signal;HPM_P1;HPM_P2
2023/01/20 00:01:01;;;;;;;33.67;17.45;;;1.40;99.90;;;;;;5013473;28;20064;-79
2023/01/20 00:03:26;;;;;;;36.83;15.68;;;1.60;99.90;;;;;;5015315;28;20040;-80
2023/01/20 00:05:52;;;;;;;28.70;14.68;;;1.60;99.90;;;;;;4996172;28;20037;-80
2023/01/20 00:08:17;;;;;;;37.45;13.30;;;1.60;99.90;;;;;;5029855;28;20423;-79
2023/01/20 00:10:43;;;;;;;26.15;9.32;;;1.60;99.90;;;;;;4996812;28;20025;-80
2023/01/20 00:13:08;;;;;;;35.35;17.05;;;1.50;99.90;;;;;;4996541;28;20036;-80
2023/01/20 00:15:34;;;;;;;21.15;8.57;;;1.50;99.90;;;;;;5005726;28;20036;-79
2023/01/20 00:17:59;;;;;;;30.00;13.30;;;1.60;99.90;;;;;;5028118;28;20041;-79
2023/01/20 00:20:25;;;;;;;25.67;13.68;;;1.60;99.90;;;;;;4993938;28;20036;-80
2023/01/20 00:22:51;;;;;;;36.25;18.20;;;1.60;99.90;;;;;;5023657;28;20037;-79
2023/01/20 00:25:16;;;;;;;27.30;12.60;;;1.60;99.90;;;;;;5005953;28;20037;-79
2023/01/20 00:27:42;;;;;;;20.90;9.93;;;1.60;99.90;;;;;;5011077;28;20041;-79
2023/01/20 00:30:08;;;;;;;38.85;19.40;;;1.60;99.90;;;;;;4994029;28;20025;-80
2023/01/20 00:32:44;;;;;;;35.08;14.82;;;1.60;99.90;;;;;;5003636;28;20041;-79
2023/01/20 00:35:10;;;;;;;;;;;1.60;99.90;;;;;;5011091;28;20029;-80
2023/01/20 00:37:35;;;;;;;38.63;16.10;;;1.60;99.90;;;;;;5026233;28;20011;-79
2023/01/20 00:40:01;;;;;;;35.70;17.30;;;1.60;99.90;;;;;;5027297;28;20033;-79
2023/01/20 00:42:27;;;;;;;31.83;16.88;;;1.70;99.90;;;;;;4991529;28;20035;-79
2023/01/20 00:44:52;;;;;;;47.40;20.45;;;1.60;99.90;;;;;;5009707;28;20035;-79
2023/01/20 00:47:19;;;;;;;35.03;15.68;;;1.60;99.90;;;;;;5009394;28;20108;-79
2023/01/20 00:49:45;;;;;;;34.45;18.95;;;1.60;99.90;;;;;;5012017;28;20129;-80
2023/01/20 00:52:11;;;;;;;32.58;14.50;;;1.60;99.90;;;;;;5004734;28;20551;-79
2023/01/20 00:54:36;;;;;;;55.58;22.83;;;1.60;99.90;;;;;;5026938;28;20024;-79
2023/01/20 00:57:02;;;;;;;46.85;22.25;;;1.60;99.90;;;;;;5026706;28;20033;-79
2023/01/20 00:59:28;;;;;;;38.08;20.20;;;1.60;99.90;;;;;;5009574;28;20017;-79
2023/01/20 01:01:53;;;;;;;22.23;11.85;;;1.50;99.90;;;;;;5004361;28;20033;-79
2023/01/20 01:04:19;;;;;;;17.48;8.85;;;1.60;99.90;;;;;;5007348;28;20033;-79
2023/01/20 01:06:44;;;;;;;42.67;18.83;;;1.60;99.90;;;;;;5007518;28;20113;-79
2023/01/20 01:09:10;;;;;;;31.52;14.10;;;1.60;99.90;;;;;;5007212;28;20049;-79
2023/01/20 01:11:35;;;;;;;26.40;11.85;;;1.60;99.90;;;;;;5025699;28;20024;-80
2023/01/20 01:14:01;;;;;;;42.72;19.60;;;1.60;99.90;;;;;;5006394;28;20033;-79
2023/01/20 01:16:26;;;;;;;43.90;19.38;;;1.60;99.90;;;;;;5003987;28;20033;-79
2023/01/20 01:18:53;;;;;;;42.25;19.70;;;1.60;99.90;;;;;;5008793;28;20032;-80
2023/01/20 01:21:19;;;;;;;55.63;24.85;;;1.50;99.90;;;;;;5008831;28;20116;-80
2023/01/20 01:23:45;;;;;;;47.00;22.58;;;1.60;99.90;;;;;;5008361;28;20108;-79
2023/01/20 01:26:10;;;;;;;32.28;14.25;;;1.60;99.90;;;;;;5009639;28;20502;-79
2023/01/20 01:28:36;;;;;;;28.38;12.13;;;1.60;99.90;;;;;;5007100;28;20040;-80
2023/01/20 01:31:02;;;;;;;34.80;16.33;;;1.60;99.90;;;;;;5010027;28;20036;-81
2023/01/20 01:33:28;;;;;;;24.95;10.43;;;1.60;99.90;;;;;;5009775;28;20087;-81
2023/01/20 01:35:57;;;;;;;31.50;13.95;;;1.60;99.90;;;;;;5014149;28;20580;-80
2023/01/20 01:38:23;;;;;;;38.25;17.98;;;1.60;99.90;;;;;;5011824;28;20037;-79
2023/01/20 01:40:50;;;;;;;41.17;18.52;;;1.60;99.90;;;;;;5007520;28;20040;-80
2023/01/20 01:43:29;;;;;;;20.80;9.93;;;1.60;99.90;;;;;;4991920;28;20032;-79
2023/01/20 01:45:54;;;;;;;47.47;18.98;;;1.60;99.90;;;;;;5009503;28;20048;-79
2023/01/20 01:48:36;;;;;;;44.65;18.30;;;1.60;99.90;;;;;;5007265;28;20044;-80
2023/01/20 01:51:06;;;;;;;26.80;11.20;;;1.60;99.90;;;;;;5008881;28;20119;-80
2023/01/20 01:53:35;;;;;;;37.83;15.65;;;1.60;99.90;;;;;;5008372;28;20032;-80
2023/01/20 01:56:01;;;;;;;48.40;20.17;;;1.60;99.90;;;;;;5008278;28;20123;-78
2023/01/20 01:58:31;;;;;;;56.05;23.73;;;1.60;99.90;;;;;;5012100;28;20202;-78
2023/01/20 02:00:56;;;;;;;37.50;15.70;;;1.60;99.90;;;;;;4991518;28;20155;-78
2023/01/20 02:03:22;;;;;;;32.05;9.32;;;1.60;99.90;;;;;;5024000;28;20056;-78
2023/01/20 02:05:49;;;;;;;40.40;17.92;;;1.60;99.90;;;;;;5009418;28;20036;-78
2023/01/20 02:08:14;;;;;;;50.55;21.42;;;1.60;99.90;;;;;;5006632;28;20048;-78
2023/01/20 02:10:40;;;;;;;58.40;27.02;;;1.60;99.90;;;;;;5007498;28;20025;-78
2023/01/20 02:13:05;;;;;;;29.52;13.07;;;1.60;99.90;;;;;;5008776;28;20100;-79
2023/01/20 02:16:04;;;;;;;58.92;20.27;;;1.60;99.90;;;;;;5006323;28;20029;-79
2023/01/20 02:18:48;;;;;;;26.52;10.73;;;1.50;99.90;;;;;;5002734;28;20087;-80
2023/01/20 02:21:26;;;;;;;52.55;21.98;;;1.50;99.90;;;;;;5020733;28;20404;-79
2023/01/20 02:24:25;;;;;;;21.25;7.10;;;1.50;99.90;;;;;;5022643;28;20032;-79
2023/01/20 02:26:55;;;;;;;53.15;22.95;;;1.50;99.90;;;;;;5008427;28;20489;-80
2023/01/20 02:29:33;;;;;;;46.40;20.52;;;1.60;99.90;;;;;;5025153;28;20044;-79
2023/01/20 02:32:05;;;;;;;21.58;10.70;;;1.60;99.90;;;;;;5008264;28;20041;-80
2023/01/20 02:34:58;;;;;;;41.58;20.02;;;1.50;99.90;;;;;;5020714;28;20083;-79
2023/01/20 02:37:37;;;;;;;41.90;16.92;;;1.50;99.90;;;;;;4991523;28;20040;-79
2023/01/20 02:40:24;;;;;;;37.03;16.17;;;1.50;99.90;;;;;;4988167;28;20102;-79
2023/01/20 02:42:50;;;;;;;29.48;12.30;;;1.50;99.90;;;;;;5003773;28;20596;-79
2023/01/20 02:45:25;;;;;;;50.35;22.13;;;1.50;99.90;;;;;;5019729;28;20036;-79
2023/01/20 02:48:00;;;;;;;14.35;6.82;;;1.50;99.90;;;;;;5012788;28;20048;-80
2023/01/20 02:50:28;;;;;;;;;;;1.50;99.90;;;;;;5006639;28;20501;-80
2023/01/20 02:52:55;;;;;;;38.95;15.43;;;1.50;99.90;;;;;;5025843;28;19916;-79
2023/01/20 02:55:32;;;;;;;30.17;12.48;;;1.60;99.90;;;;;;5002524;28;20029;-79
2023/01/20 02:58:01;;;;;;;14.93;6.50;;;1.50;99.90;;;;;;5019027;28;20397;-80
2023/01/20 03:00:30;;;;;;;36.33;18.15;;;1.50;99.90;;;;;;5008283;28;20048;-79
2023/01/20 03:02:56;;;;;;;27.67;11.98;;;1.50;99.90;;;;;;5009687;28;20033;-80
2023/01/20 03:05:25;;;;;;;37.63;20.40;;;1.50;99.90;;;;;;4994505;28;20501;-79
2023/01/20 03:07:50;;;;;;;44.13;21.30;;;1.50;99.90;;;;;;4993758;28;20033;-80
2023/01/20 03:10:17;;;;;;;45.97;22.27;;;1.60;99.90;;;;;;5006356;28;20041;-79
2023/01/20 03:12:57;;;;;;;42.55;17.63;;;1.40;99.90;;;;;;5012250;28;20040;-79
2023/01/20 03:15:40;;;;;;;40.97;19.17;;;1.50;99.90;;;;;;5025727;28;20496;-80
2023/01/20 03:18:06;;;;;;;48.45;21.77;;;1.50;99.90;;;;;;5011405;28;20623;-80
2023/01/20 03:20:31;;;;;;;29.50;12.48;;;1.50;99.90;;;;;;5011152;28;20033;-79
2023/01/20 03:22:57;;;;;;;35.97;18.05;;;1.50;99.90;;;;;;5012148;28;20135;-80
2023/01/20 03:25:22;;;;;;;29.42;10.65;;;1.40;99.90;;;;;;4996299;28;20433;-79
2023/01/20 03:27:48;;;;;;;40.30;19.80;;;1.40;99.90;;;;;;5006028;28;20564;-79
2023/01/20 03:30:14;;;;;;;37.05;16.15;;;1.40;99.90;;;;;;4998854;28;20444;-80
2023/01/20 03:32:44;;;;;;;42.67;17.10;;;1.50;99.90;;;;;;4994815;28;20442;-80
2023/01/20 03:35:11;;;;;;;42.40;19.17;;;1.50;99.90;;;;;;5014900;28;20512;-79
2023/01/20 03:37:36;;;;;;;23.00;8.80;;;1.40;99.90;;;;;;5008990;28;20346;-80
2023/01/20 03:40:02;;;;;;;42.45;19.55;;;1.40;99.90;;;;;;4995386;28;20044;-80
2023/01/20 03:42:34;;;;;;;37.67;17.20;;;1.40;99.90;;;;;;4995243;28;20033;-79
2023/01/20 03:45:06;;;;;;;25.42;10.35;;;1.40;99.90;;;;;;4992782;28;20041;-79
2023/01/20 03:47:56;;;;;;;24.65;11.25;;;1.40;99.90;;;;;;5006763;28;20029;-79
2023/01/20 03:51:09;;;;;;;37.42;17.20;;;1.40;99.90;;;;;;5028628;28;20033;-80
2023/01/20 03:53:44;;;;;;;36.88;18.30;;;1.40;99.90;;;;;;4944172;28;20112;-86
2023/01/20 03:56:15;;;;;;;41.38;19.33;;;1.40;99.90;;;;;;4933110;28;20038;-86
2023/01/20 03:58:42;;;;;;;42.80;19.00;;;1.40;99.90;;;;;;5011983;28;20025;-87
2023/01/20 04:01:09;;;;;;;38.55;18.75;;;1.40;99.90;;;;;;5008853;28;20094;-86
2023/01/20 04:03:37;;;;;;;33.75;16.65;;;1.40;99.90;;;;;;5024069;28;20038;-86
2023/01/20 04:06:04;;;;;;;15.82;7.38;;;1.50;99.90;;;;;;5030260;28;20033;-86
2023/01/20 04:08:32;;;;;;;34.55;14.80;;;1.30;99.90;;;;;;5008726;28;20484;-86
2023/01/20 04:10:58;;;;;;;31.52;15.05;;;1.40;99.90;;;;;;5008639;28;20039;-87
2023/01/20 04:13:24;;;;;;;24.52;10.35;;;1.40;99.90;;;;;;5025617;28;20036;-86
2023/01/20 04:15:49;;;;;;;17.55;9.32;;;1.40;99.90;;;;;;5027274;28;20128;-86
2023/01/20 04:18:19;;;;;;;44.00;20.15;;;1.40;99.90;;;;;;5026445;28;20033;-85
2023/01/20 04:21:01;;;;;;;34.78;15.50;;;1.40;99.90;;;;;;5025260;28;20061;-87
2023/01/20 04:23:30;;;;;;;24.00;9.88;;;1.40;99.90;;;;;;4995162;28;20033;-86
2023/01/20 04:25:55;;;;;;;22.02;9.15;;;1.40;99.90;;;;;;4995217;28;20788;-85
2023/01/20 04:28:21;;;;;;;35.67;15.90;;;1.30;99.90;;;;;;4997344;28;20048;-85
2023/01/20 04:30:47;;;;;;;30.83;12.77;;;1.40;99.90;;;;;;5027171;28;20057;-85
2023/01/20 04:33:12;;;;;;;16.88;7.43;;;1.30;99.90;;;;;;5020247;28;20095;-85
2023/01/20 04:35:38;;;;;;;31.33;15.02;;;1.30;99.90;;;;;;4995962;28;20049;-84
2023/01/20 04:38:04;;;;;;;35.40;17.92;;;1.30;99.90;;;;;;5009276;28;20041;-85
2023/01/20 04:40:29;;;;;;;33.83;14.30;;;1.20;99.90;;;;;;4995759;28;20063;-84
2023/01/20 04:42:55;;;;;;;33.45;15.60;;;1.30;99.90;;;;;;5013131;28;20504;-84
2023/01/20 04:45:20;;;;;;;35.55;15.15;;;1.30;99.90;;;;;;5028988;28;20527;-85
2023/01/20 04:47:46;;;;;;;22.75;9.95;;;1.30;99.90;;;;;;4999833;28;20439;-85
2023/01/20 04:50:11;;;;;;;39.00;16.83;;;1.30;99.90;;;;;;5011838;28;20420;-85
2023/01/20 04:52:37;;;;;;;18.52;5.05;;;1.30;99.90;;;;;;5026861;28;20029;-85
2023/01/20 04:55:03;;;;;;;23.70;8.00;;;1.30;99.90;;;;;;4994010;28;20748;-86
2023/01/20 04:57:28;;;;;;;31.80;13.48;;;1.30;99.90;;;;;;5006684;28;20033;-87
2023/01/20 04:59:54;;;;;;;37.22;17.70;;;1.30;99.90;;;;;;5011260;28;20095;-86
2023/01/20 05:02:19;;;;;;;24.10;8.43;;;1.30;99.90;;;;;;4995071;28;20039;-87
2023/01/20 05:04:45;;;;;;;30.10;14.38;;;1.20;99.90;;;;;;4992390;28;20456;-86
2023/01/20 05:07:10;;;;;;;35.08;15.50;;;1.30;99.90;;;;;;5003127;28;20512;-86
2023/01/20 05:09:36;;;;;;;39.35;17.25;;;1.30;99.90;;;;;;5009630;28;20041;-87
2023/01/20 05:12:02;;;;;;;31.83;15.88;;;1.40;99.90;;;;;;5008950;28;20064;-87
2023/01/20 05:14:27;;;;;;;36.30;15.32;;;1.40;99.90;;;;;;4995387;28;20037;-88
2023/01/20 05:16:53;;;;;;;29.00;13.43;;;1.40;99.90;;;;;;4995971;28;20064;-87
2023/01/20 05:19:18;;;;;;;30.23;13.90;;;1.40;99.90;;;;;;4999751;28;20072;-86
2023/01/20 05:21:44;;;;;;;29.75;14.48;;;1.40;99.90;;;;;;5027293;28;20032;-86
2023/01/20 05:24:09;;;;;;;33.75;14.85;;;1.30;99.90;;;;;;5025863;28;20037;-87
2023/01/20 05:26:35;;;;;;;31.15;15.45;;;1.40;99.90;;;;;;5012106;28;20041;-88
2023/01/20 05:29:01;;;;;;;31.90;13.70;;;1.40;99.90;;;;;;5015397;28;20041;-88
2023/01/20 05:31:27;;;;;;;30.83;13.38;;;1.40;99.90;;;;;;5011408;28;20389;-86
2023/01/20 05:33:52;;;;;;;31.30;13.20;;;1.40;99.90;;;;;;4994488;28;20090;-87
2023/01/20 05:36:18;;;;;;;34.80;15.45;;;1.40;99.90;;;;;;4995862;28;20037;-88
2023/01/20 05:38:43;;;;;;;29.08;13.38;;;1.40;99.90;;;;;;5004816;28;20382;-88
2023/01/20 05:41:09;;;;;;;31.83;15.23;;;1.40;99.90;;;;;;5011294;28;20124;-88
2023/01/20 05:43:35;;;;;;;30.23;13.57;;;1.40;99.90;;;;;;4996296;28;20120;-86
2023/01/20 05:46:00;;;;;;;30.05;13.82;;;1.30;99.90;;;;;;5013015;28;20063;-86
2023/01/20 05:48:26;;;;;;;25.60;12.00;;;1.30;99.90;;;;;;5025624;28;20037;-85
2023/01/20 05:50:51;;;;;;;29.42;14.50;;;1.30;99.90;;;;;;5006620;28;20036;-86
2023/01/20 05:53:17;;;;;;;29.83;13.73;;;1.30;99.90;;;;;;5026535;28;20096;-88
2023/01/20 05:55:42;;;;;;;29.83;13.70;;;1.40;99.90;;;;;;5004972;28;20033;-86
2023/01/20 05:58:08;;;;;;;25.75;11.65;;;1.30;99.90;;;;;;5022414;28;20033;-87
2023/01/20 06:00:34;;;;;;;31.73;15.13;;;1.40;99.90;;;;;;4995974;28;20040;-88
2023/01/20 06:02:59;;;;;;;27.13;13.63;;;1.40;99.90;;;;;;5008252;28;20037;-88
2023/01/20 06:05:25;;;;;;;30.45;14.85;;;1.40;99.90;;;;;;5011171;28;20048;-88
2023/01/20 06:07:50;;;;;;;33.63;15.73;;;1.40;99.90;;;;;;5002470;28;20401;-88
2023/01/20 06:10:16;;;;;;;27.98;13.48;;;1.40;99.90;;;;;;5006936;28;20061;-88
2023/01/20 06:12:42;;;;;;;31.45;14.60;;;1.40;99.90;;;;;;4994835;28;20029;-89
2023/01/20 06:15:08;;;;;;;30.15;14.15;;;1.40;99.90;;;;;;5006526;28;20032;-87
2023/01/20 06:17:33;;;;;;;27.55;13.55;;;1.50;99.90;;;;;;5025027;28;20132;-87
2023/01/20 06:19:59;;;;;;;23.67;12.60;;;1.50;99.90;;;;;;4992604;28;20112;-88
2023/01/20 06:22:26;;;;;;;31.65;13.60;;;1.50;99.90;;;;;;5022410;28;20033;-87
2023/01/20 06:24:51;;;;;;;33.67;15.73;;;1.50;99.90;;;;;;5012337;28;20026;-87
2023/01/20 06:27:17;;;;;;;34.50;14.60;;;1.30;99.90;;;;;;5010243;28;20124;-87
2023/01/20 06:29:45;;;;;;;28.05;11.95;;;1.30;99.90;;;;;;5009031;28;20037;-88
2023/01/20 06:32:11;;;;;;;26.27;11.60;;;1.30;99.90;;;;;;5026659;28;20037;-89
2023/01/20 06:34:36;;;;;;;34.40;15.30;;;1.30;99.90;;;;;;4981396;28;20456;-89
2023/01/20 06:37:02;;;;;;;27.92;12.95;;;1.40;99.90;;;;;;4995135;28;20065;-88
2023/01/20 06:39:28;;;;;;;35.17;14.70;;;1.40;99.90;;;;;;4992905;28;20037;-89
2023/01/20 06:41:57;;;;;;;22.98;10.43;;;1.50;99.90;;;;;;5008642;28;20036;-89
2023/01/20 06:44:23;;;;;;;17.15;9.57;;;1.40;99.90;;;;;;5010075;28;20550;-89
2023/01/20 06:46:48;;;;;;;34.55;15.65;;;1.40;99.90;;;;;;5008542;28;20064;-89
2023/01/20 06:49:14;;;;;;;13.65;6.20;;;1.40;99.90;;;;;;5011446;28;20029;-88
2023/01/20 06:51:40;;;;;;;15.70;7.15;;;1.40;99.90;;;;;;5007464;28;20100;-85
2023/01/20 06:54:06;;;;;;;40.42;17.67;;;1.40;99.90;;;;;;5009425;28;20048;-88
2023/01/20 06:56:31;;;;;;;5.03;2.83;;;1.40;99.90;;;;;;5006757;28;20029;-84
2023/01/20 06:58:57;;;;;;;31.02;12.35;;;1.40;99.90;;;;;;5009678;28;20040;-84
2023/01/20 07:01:24;;;;;;;34.15;15.50;;;1.40;99.90;;;;;;4991124;28;20107;-84
2023/01/20 07:03:49;;;;;;;35.78;16.50;;;1.40;99.90;;;;;;5006402;28;20249;-83
2023/01/20 07:06:21;;;;;;;36.90;17.35;;;1.40;99.90;;;;;;5020967;28;20482;-84
2023/01/20 07:08:47;;;;;;;46.53;21.45;;;1.40;99.90;;;;;;4989183;28;20034;-82
2023/01/20 07:11:12;;;;;;;36.40;17.35;;;1.40;99.90;;;;;;5006472;28;20033;-83
2023/01/20 07:13:38;;;;;;;37.55;16.85;;;1.30;99.90;;;;;;5007949;28;20037;-84
2023/01/20 07:16:04;;;;;;;17.50;8.63;;;1.30;99.90;;;;;;5002145;28;20037;-84
2023/01/20 07:18:30;;;;;;;15.50;6.68;;;1.30;99.90;;;;;;4988324;28;20044;-84
2023/01/20 07:20:55;;;;;;;42.15;17.45;;;1.20;99.90;;;;;;4985524;28;20057;-84
2023/01/20 07:23:22;;;;;;;33.47;17.20;;;1.30;99.90;;;;;;4991862;28;20503;-84
2023/01/20 07:25:55;;;;;;;33.00;15.07;;;1.30;99.90;;;;;;5003777;28;20047;-84
2023/01/20 07:28:20;;;;;;;42.00;18.00;;;1.20;99.90;;;;;;4985441;28;20547;-84
2023/01/20 07:30:46;;;;;;;16.10;7.82;;;1.20;99.90;;;;;;5006270;28;20082;-84
2023/01/20 07:33:11;;;;;;;16.63;7.28;;;1.10;99.90;;;;;;5004510;28;20112;-85
2023/01/20 07:35:37;;;;;;;32.45;16.92;;;1.20;99.90;;;;;;5018237;28;20099;-83
2023/01/20 07:38:03;;;;;;;20.13;10.25;;;1.20;99.90;;;;;;5006922;28;20108;-83
2023/01/20 07:40:28;;;;;;;27.45;8.75;;;1.00;99.90;;;;;;5023304;28;20025;-84
2023/01/20 07:42:54;;;;;;;31.55;15.55;;;1.10;99.90;;;;;;5004246;28;20025;-84
2023/01/20 07:45:20;;;;;;;13.18;6.53;;;1.00;99.90;;;;;;5026029;28;20040;-84
2023/01/20 07:47:45;;;;;;;30.10;15.70;;;1.00;99.90;;;;;;5023750;28;20036;-83
2023/01/20 07:50:11;;;;;;;32.65;17.25;;;1.00;99.90;;;;;;5008489;28;20021;-84
2023/01/20 07:52:36;;;;;;;26.73;13.02;;;1.00;99.90;;;;;;5013630;28;20028;-84
2023/01/20 07:55:02;;;;;;;35.47;19.05;;;0.90;99.90;;;;;;5008360;28;20039;-84
2023/01/20 07:57:29;;;;;;;26.63;11.95;;;0.90;99.90;;;;;;4996202;28;20033;-83
2023/01/20 07:59:54;;;;;;;24.02;12.30;;;0.90;99.90;;;;;;5010639;28;20489;-84
2023/01/20 08:02:20;;;;;;;30.83;15.55;;;1.00;99.90;;;;;;5008023;28;20032;-83
2023/01/20 08:04:45;;;;;;;27.95;13.80;;;1.10;99.90;;;;;;5004022;28;20041;-84
2023/01/20 08:07:11;;;;;;;28.92;15.85;;;1.10;99.90;;;;;;5009366;28;20452;-83
2023/01/20 08:09:36;;;;;;;31.95;16.63;;;1.10;99.90;;;;;;5005377;28;20416;-84
2023/01/20 08:12:02;;;;;;;33.95;17.33;;;1.00;99.90;;;;;;5009640;28;20488;-84
2023/01/20 08:14:28;;;;;;;26.02;12.23;;;1.00;99.90;;;;;;4994978;28;20397;-84
2023/01/20 08:16:53;;;;;;;35.13;16.23;;;1.00;99.90;;;;;;5021086;28;20139;-83
2023/01/20 08:19:19;;;;;;;27.27;15.65;;;1.00;99.90;;;;;;5016092;28;20033;-84
2023/01/20 08:21:44;;;;;;;28.02;15.43;;;1.10;99.90;;;;;;5025779;28;20037;-84
2023/01/20 08:24:10;;;;;;;31.13;16.23;;;1.10;99.90;;;;;;4991921;28;20036;-83
2023/01/20 08:26:36;;;;;;;24.20;11.85;;;1.10;99.90;;;;;;5008600;28;20401;-82
2023/01/20 08:29:03;;;;;;;30.27;15.30;;;1.20;99.90;;;;;;5008755;28;20120;-82
2023/01/20 08:31:29;;;;;;;37.35;19.17;;;1.20;99.90;;;;;;5008600;28;20542;-82
2023/01/20 08:33:54;;;;;;;29.35;15.93;;;1.20;99.90;;;;;;4991126;28;20037;-83
2023/01/20 08:36:22;;;;;;;30.58;15.85;;;1.20;99.90;;;;;;5022234;28;20061;-83
2023/01/20 08:38:50;;;;;;;28.65;15.38;;;1.20;99.90;;;;;;5021171;28;20041;-83
2023/01/20 08:41:21;;;;;;;26.02;14.50;;;1.30;99.90;;;;;;4994095;28;20033;-83
2023/01/20 08:43:47;;;;;;;28.85;14.07;;;1.30;99.90;;;;;;5004759;28;20059;-83
2023/01/20 08:46:13;;;;;;;15.27;7.47;;;1.40;99.90;;;;;;5003002;28;20045;-83
2023/01/20 08:48:39;;;;;;;25.40;12.98;;;1.40;99.90;;;;;;4990952;28;20029;-83
2023/01/20 08:51:08;;;;;;;21.83;9.88;;;1.40;99.90;;;;;;4991999;28;20037;-83
2023/01/20 08:53:34;;;;;;;29.60;17.35;;;1.50;99.90;;;;;;4992257;28;20060;-83
2023/01/20 08:56:00;;;;;;;34.15;16.02;;;1.50;99.90;;;;;;5008550;28;20519;-83
2023/01/20 08:58:26;;;;;;;36.00;17.73;;;1.50;99.90;;;;;;4989327;28;20028;-83
2023/01/20 09:00:52;;;;;;;20.75;9.73;;;1.60;99.90;;;;;;5009509;28;20381;-83
2023/01/20 09:03:17;;;;;;;31.33;13.20;;;1.60;99.90;;;;;;4993033;28;20025;-83
2023/01/20 09:05:43;;;;;;;33.60;17.23;;;1.60;99.90;;;;;;5024441;28;20033;-83
2023/01/20 09:08:08;;;;;;;31.25;16.40;;;1.70;99.90;;;;;;5007505;28;20044;-83
2023/01/20 09:10:34;;;;;;;38.70;19.85;;;1.70;99.90;;;;;;5028100;28;20031;-82
2023/01/20 09:12:59;;;;;;;32.53;16.75;;;1.70;99.90;;;;;;5010067;28;20029;-83
2023/01/20 09:15:25;;;;;;;38.28;19.58;;;1.80;99.90;;;;;;4991665;28;20029;-83
2023/01/20 09:17:50;;;;;;;38.10;17.75;;;1.90;99.90;;;;;;5009158;28;20064;-83
2023/01/20 09:20:16;;;;;;;34.35;18.17;;;1.90;99.90;;;;;;5022012;28;20033;-83
2023/01/20 09:22:41;;;;;;;12.93;7.00;;;1.90;99.90;;;;;;5005700;28;20397;-82
2023/01/20 09:25:08;;;;;;;31.83;18.20;;;1.90;99.90;;;;;;5009155;28;20094;-82
2023/01/20 09:27:33;;;;;;;23.02;10.48;;;1.90;99.90;;;;;;4987406;28;20246;-83
2023/01/20 09:29:59;;;;;;;33.97;17.65;;;1.90;99.90;;;;;;5021576;28;20496;-83
2023/01/20 09:32:24;;;;;;;12.40;5.25;;;1.90;99.90;;;;;;5018486;28;20499;-82
2023/01/20 09:34:50;;;;;;;17.90;7.70;;;1.90;99.90;;;;;;5010703;28;20032;-82
2023/01/20 09:45:53;;;;;;;18.40;8.70;;;2.10;99.90;;;;;;5026125;28;20040;-82
2023/01/20 09:54:28;;;;;;;32.10;15.60;;;2.10;99.90;;;;;;5016813;28;20111;-83
2023/01/20 09:56:53;;;;;;;34.25;17.15;;;2.10;99.90;;;;;;4992654;28;20080;-82
2023/01/20 09:59:23;;;;;;;24.27;12.73;;;2.20;99.90;;;;;;5008736;28;20444;-82
2023/01/20 10:01:51;;;;;;;34.58;18.95;;;2.20;99.90;;;;;;5010488;28;20031;-83
2023/01/20 10:04:31;;;;;;;35.70;16.63;;;2.30;99.90;;;;;;5024486;28;20508;-83
2023/01/20 10:07:10;;;;;;;21.92;10.18;;;2.30;99.90;;;;;;4990779;28;20037;-82
2023/01/20 10:10:03;;;;;;;24.38;12.32;;;2.30;99.90;;;;;;5005735;28;20120;-82
2023/01/20 10:12:36;;;;;;;29.52;17.50;;;2.40;99.90;;;;;;5040401;28;20032;-83
2023/01/20 10:15:17;;;;;;;29.73;13.38;;;2.40;99.90;;;;;;4992832;28;20243;-82
2023/01/20 10:17:55;;;;;;;27.88;14.30;;;2.40;99.90;;;;;;5004828;28;20036;-82
2023/01/20 10:20:29;;;;;;;29.50;14.95;;;2.50;99.90;;;;;;5002704;28;20064;-82
2023/01/20 10:22:57;;;;;;;29.05;14.25;;;2.60;99.90;;;;;;4999853;28;20481;-83
2023/01/20 10:25:32;;;;;;;25.27;10.65;;;2.70;99.90;;;;;;5017437;28;20572;-82
2023/01/20 10:28:19;;;;;;;28.60;13.68;;;2.60;99.90;;;;;;5023620;28;20040;-82
2023/01/20 10:30:46;;;;;;;34.35;18.63;;;2.60;99.90;;;;;;5010254;28;20267;-82
2023/01/20 10:33:22;;;;;;;23.27;9.75;;;2.70;99.90;;;;;;5005123;28;20489;-83
2023/01/20 10:35:50;;;;;;;35.22;16.35;;;2.70;99.90;;;;;;4994141;28;20033;-83
2023/01/20 10:38:33;;;;;;;21.52;12.32;;;2.70;99.90;;;;;;5003118;28;20037;-83
2023/01/20 10:41:02;;;;;;;32.20;18.15;;;2.80;99.90;;;;;;5007542;28;20056;-82
2023/01/20 10:43:28;;;;;;;27.60;15.55;;;3.00;99.90;;;;;;5027420;28;20724;-82
2023/01/20 10:46:12;;;;;;;26.20;14.60;;;3.20;99.90;;;;;;5025286;28;20029;-82
2023/01/20 10:48:57;;;;;;;29.73;14.65;;;3.30;99.90;;;;;;5025275;28;20076;-82
2023/01/20 10:51:38;;;;;;;36.38;19.25;;;3.40;99.90;;;;;;5004219;28;20041;-82
2023/01/20 10:54:35;;;;;;;31.05;14.30;;;3.40;99.90;;;;;;5023280;28;20037;-81
2023/01/20 10:57:00;;;;;;;;;;;3.40;99.90;;;;;;5007440;28;20033;-82
2023/01/20 10:59:30;;;;;;;39.77;19.23;;;3.60;99.90;;;;;;5012223;28;19919;-81
2023/01/20 11:01:57;;;;;;;37.88;19.80;;;3.70;99.90;;;;;;5018299;28;20032;-82
2023/01/20 11:04:23;;;;;;;37.17;18.88;;;3.80;99.90;;;;;;5027112;28;20032;-82
2023/01/20 11:06:51;;;;;;;35.22;18.80;;;4.00;99.90;;;;;;5010805;28;20036;-83
2023/01/20 11:09:26;;;;;;;32.05;18.20;;;4.00;99.90;;;;;;5021260;28;20593;-82
2023/01/20 11:11:51;;;;;;;34.60;18.27;;;4.00;99.90;;;;;;5009046;28;20030;-81
2023/01/20 11:14:17;;;;;;;25.63;13.75;;;3.90;99.90;;;;;;5011638;28;20039;-83
2023/01/20 11:16:46;;;;;;;26.67;13.75;;;3.90;99.90;;;;;;5006502;28;20040;-82
2023/01/20 11:19:12;;;;;;;27.30;16.23;;;4.00;99.90;;;;;;5006208;28;20385;-82
2023/01/20 11:21:39;;;;;;;27.88;16.05;;;4.10;99.90;;;;;;5023425;28;20037;-81
2023/01/20 11:24:32;;;;;;;27.48;13.35;;;4.00;99.90;;;;;;5027825;28;20043;-82
2023/01/20 11:27:17;;;;;;;29.10;13.15;;;4.00;99.90;;;;;;4997295;28;20511;-82
2023/01/20 11:29:51;;;;;;;28.58;15.43;;;4.00;99.90;;;;;;5028838;28;20045;-81
2023/01/20 11:32:33;;;;;;;22.83;12.93;;;4.00;99.90;;;;;;5024100;28;20036;-82
2023/01/20 11:35:00;;;;;;;28.63;13.75;;;4.30;99.90;;;;;;4995479;28;20050;-81
2023/01/20 11:37:33;;;;;;;26.15;12.65;;;4.20;99.90;;;;;;5027449;28;20496;-81
2023/01/20 11:40:01;;;;;;;24.38;13.18;;;4.30;99.90;;;;;;5005229;28;20041;-81
2023/01/20 11:42:28;;;;;;;22.23;11.32;;;4.10;99.90;;;;;;5007058;28;20033;-81
2023/01/20 11:44:58;;;;;;;23.15;11.82;;;4.30;99.90;;;;;;4999129;28;20044;-82
2023/01/20 11:47:32;;;;;;;21.10;11.45;;;4.20;99.90;;;;;;5025715;28;20446;-82
2023/01/20 11:50:03;;;;;;;22.45;11.35;;;4.20;99.90;;;;;;5024689;28;20033;-82
2023/01/20 11:52:43;;;;;;;18.70;10.07;;;4.20;99.90;;;;;;5029136;28;20033;-82
2023/01/20 11:55:09;;;;;;;22.27;9.50;;;4.20;99.90;;;;;;5012559;28;20113;-81
2023/01/20 11:57:36;;;;;;;16.13;10.13;;;3.90;99.90;;;;;;5025117;28;20068;-82
2023/01/20 12:00:03;;;;;;;15.88;10.30;;;3.90;99.90;;;;;;5013220;28;20041;-82
2023/01/20 12:02:28;;;;;;;17.50;9.65;;;3.90;99.90;;;;;;5011564;28;20480;-81
2023/01/20 12:05:09;;;;;;;16.38;9.55;;;4.00;99.90;;;;;;4996706;28;20032;-82
2023/01/20 12:07:36;;;;;;;17.08;9.63;;;3.90;99.90;;;;;;5028462;28;20033;-82
2023/01/20 12:10:10;;;;;;;15.43;9.70;;;3.90;99.90;;;;;;5027484;28;20044;-81
2023/01/20 12:12:44;;;;;;;14.63;8.45;;;3.90;99.90;;;;;;5012575;28;20029;-82
2023/01/20 12:15:21;;;;;;;14.27;8.38;;;4.00;99.90;;;;;;5010138;28;20059;-82
2023/01/20 12:17:51;;;;;;;15.63;8.90;;;4.10;99.90;;;;;;5029952;28;20040;-81
2023/01/20 12:20:36;;;;;;;11.48;6.60;;;4.00;99.90;;;;;;5026043;28;20099;-82
2023/01/20 12:23:22;;;;;;;18.55;8.35;;;3.90;99.90;;;;;;4992826;28;20448;-81
2023/01/20 12:25:55;;;;;;;14.10;7.60;;;3.90;99.90;;;;;;5007154;28;20032;-82
2023/01/20 12:28:27;;;;;;;14.25;8.43;;;3.90;99.90;;;;;;5022458;28;20413;-82
2023/01/20 12:31:00;;;;;;;20.15;8.40;;;3.90;99.90;;;;;;5005072;28;20033;-82
2023/01/20 12:33:33;;;;;;;12.48;8.38;;;3.80;99.90;;;;;;5010181;28;20116;-82
2023/01/20 12:36:24;;;;;;;13.82;7.38;;;3.70;99.90;;;;;;5020072;28;20053;-82
2023/01/20 12:38:52;;;;;;;12.98;6.75;;;3.60;99.90;;;;;;5020468;28;20488;-81
2023/01/20 12:41:33;;;;;;;14.88;8.48;;;3.60;99.90;;;;;;5023153;28;20033;-81
2023/01/20 12:44:12;;;;;;;14.60;7.25;;;3.70;99.90;;;;;;5027869;28;20021;-82
2023/01/20 12:46:50;;;;;;;13.45;8.18;;;3.60;99.90;;;;;;5008942;28;20032;-81
2023/01/20 12:49:33;;;;;;;13.65;7.00;;;3.60;99.90;;;;;;5010223;28;20052;-81
2023/01/20 12:51:59;;;;;;;9.27;6.15;;;3.70;99.90;;;;;;5021622;28;20041;-81
2023/01/20 12:54:37;;;;;;;14.65;9.27;;;3.60;99.90;;;;;;5021417;28;20038;-81
2023/01/20 12:57:22;;;;;;;14.88;8.25;;;3.90;99.90;;;;;;5040078;28;20327;-81
2023/01/20 13:00:05;;;;;;;18.08;9.68;;;3.80;99.90;;;;;;5010333;28;20629;-81
2023/01/20 13:02:56;;;;;;;13.85;6.75;;;3.90;99.90;;;;;;5010178;28;20072;-81
2023/01/20 13:05:46;;;;;;;14.68;9.57;;;3.90;99.90;;;;;;5042367;28;20037;-81